KNQA/NQA METAR and TAF weather

Enter ICAO airport designator
Station Type Date Time Source
KNQA METAR 2020/07/06 18:50 UTC NOAA

KNQA 061850Z 05006KT 10SM FEW040 33/23 A2996


Station Type Date Time Source
KNQA Decoded METAR 2020/07/06 18:50 UTC NOAA

Millington, Millington Municipal Airport, TN, United States (KNQA) 35-21-24N 089-52-13W
Jul 06, 2020 - 02:50 PM EDT / 2020.07.06 1850 UTC
Wind: from the NE (050 degrees) at 7 MPH (6 KT):0
Visibility: 10 mile(s):0
Sky conditions: mostly clear
Temperature: 91 F (33 C)
Heat index: 99.1 F (37.3 C):1
Dew Point: 73 F (23 C)
Relative Humidity: 55%
Pressure (altimeter): 29.96 in. Hg (1014 hPa)
ob: KNQA 061850Z 05006KT 10SM FEW040 33/23 A2996
cycle: 19

Station Type Date Time Source
KNQA TAF UTC NOAA

Error!

Example: see airport list